sensor_id;sensor_type;location;lat;lon;timestamp;temperature;humidity
2751;DHT22;1383;48.362;10.908;2022-09-09T00:09:26;15.30;78.40
2751;DHT22;1383;48.362;10.908;2022-09-09T00:12:16;15.30;78.50
2751;DHT22;1383;48.362;10.908;2022-09-09T00:17:43;15.30;78.00
2751;DHT22;1383;48.362;10.908;2022-09-09T00:20:30;15.20;77.80
2751;DHT22;1383;48.362;10.908;2022-09-09T00:23:24;15.10;78.50
2751;DHT22;1383;48.362;10.908;2022-09-09T00:25:59;15.10;79.60
2751;DHT22;1383;48.362;10.908;2022-09-09T00:28:31;15.10;79.70
2751;DHT22;1383;48.362;10.908;2022-09-09T00:31:18;15.10;79.90
2751;DHT22;1383;48.362;10.908;2022-09-09T00:33:49;15.10;79.50
2751;DHT22;1383;48.362;10.908;2022-09-09T00:36:20;15.10;78.90
2751;DHT22;1383;48.362;10.908;2022-09-09T00:39:00;15.10;78.50
2751;DHT22;1383;48.362;10.908;2022-09-09T00:42:09;15.10;78.40
2751;DHT22;1383;48.362;10.908;2022-09-09T00:44:32;15.10;79.00
2751;DHT22;1383;48.362;10.908;2022-09-09T00:47:23;15.20;79.00
2751;DHT22;1383;48.362;10.908;2022-09-09T00:56:11;15.20;76.70
2751;DHT22;1383;48.362;10.908;2022-09-09T00:58:46;15.20;77.70
2751;DHT22;1383;48.362;10.908;2022-09-09T01:01:17;15.10;78.90
2751;DHT22;1383;48.362;10.908;2022-09-09T01:03:53;15.00;79.50
2751;DHT22;1383;48.362;10.908;2022-09-09T01:06:31;15.00;79.70
2751;DHT22;1383;48.362;10.908;2022-09-09T01:17:31;15.00;79.10
2751;DHT22;1383;48.362;10.908;2022-09-09T01:22:44;15.10;78.50
2751;DHT22;1383;48.362;10.908;2022-09-09T01:28:16;15.10;78.10
2751;DHT22;1383;48.362;10.908;2022-09-09T01:30:45;15.10;78.00
2751;DHT22;1383;48.362;10.908;2022-09-09T01:33:17;15.10;77.90
2751;DHT22;1383;48.362;10.908;2022-09-09T01:36:07;15.00;77.90
2751;DHT22;1383;48.362;10.908;2022-09-09T01:38:35;15.00;78.30
2751;DHT22;1383;48.362;10.908;2022-09-09T01:41:03;14.90;78.40
2751;DHT22;1383;48.362;10.908;2022-09-09T01:43:30;14.90;78.40
2751;DHT22;1383;48.362;10.908;2022-09-09T01:46:00;14.90;78.70
2751;DHT22;1383;48.362;10.908;2022-09-09T01:48:28;14.80;79.20
2751;DHT22;1383;48.362;10.908;2022-09-09T01:50:55;14.90;80.00
2751;DHT22;1383;48.362;10.908;2022-09-09T01:53:22;14.80;80.10
2751;DHT22;1383;48.362;10.908;2022-09-09T01:58:28;14.80;79.40
2751;DHT22;1383;48.362;10.908;2022-09-09T02:03:28;14.80;79.00
2751;DHT22;1383;48.362;10.908;2022-09-09T02:11:16;14.70;80.60
2751;DHT22;1383;48.362;10.908;2022-09-09T02:13:46;14.70;80.50
2751;DHT22;1383;48.362;10.908;2022-09-09T02:16:20;14.70;80.70
2751;DHT22;1383;48.362;10.908;2022-09-09T02:18:49;14.70;80.50
2751;DHT22;1383;48.362;10.908;2022-09-09T02:21:18;14.70;80.60
2751;DHT22;1383;48.362;10.908;2022-09-09T02:23:47;14.70;79.80
2751;DHT22;1383;48.362;10.908;2022-09-09T02:26:16;14.60;81.10
2751;DHT22;1383;48.362;10.908;2022-09-09T02:28:49;14.60;82.40
2751;DHT22;1383;48.362;10.908;2022-09-09T02:31:19;14.50;82.30
2751;DHT22;1383;48.362;10.908;2022-09-09T02:33:52;14.50;82.00
2751;DHT22;1383;48.362;10.908;2022-09-09T02:36:22;14.50;82.50
2751;DHT22;1383;48.362;10.908;2022-09-09T02:38:50;14.50;82.70
2751;DHT22;1383;48.362;10.908;2022-09-09T02:41:24;14.50;82.30
2751;DHT22;1383;48.362;10.908;2022-09-09T02:43:51;14.50;81.80
2751;DHT22;1383;48.362;10.908;2022-09-09T02:46:34;14.50;81.30
2751;DHT22;1383;48.362;10.908;2022-09-09T02:49:11;14.50;81.20
2751;DHT22;1383;48.362;10.908;2022-09-09T02:56:52;14.40;82.60
2751;DHT22;1383;48.362;10.908;2022-09-09T02:59:21;14.40;83.40
2751;DHT22;1383;48.362;10.908;2022-09-09T03:01:48;14.30;83.90
2751;DHT22;1383;48.362;10.908;2022-09-09T03:04:15;14.30;83.60
2751;DHT22;1383;48.362;10.908;2022-09-09T03:06:42;14.30;84.00
2751;DHT22;1383;48.362;10.908;2022-09-09T03:09:09;14.30;84.20
2751;DHT22;1383;48.362;10.908;2022-09-09T03:11:38;14.30;84.40
2751;DHT22;1383;48.362;10.908;2022-09-09T03:14:05;14.20;84.60
2751;DHT22;1383;48.362;10.908;2022-09-09T03:16:32;14.20;85.20
2751;DHT22;1383;48.362;10.908;2022-09-09T03:19:01;14.20;85.20
2751;DHT22;1383;48.362;10.908;2022-09-09T03:21:27;14.20;85.30
2751;DHT22;1383;48.362;10.908;2022-09-09T03:23:54;14.30;85.60
2751;DHT22;1383;48.362;10.908;2022-09-09T03:26:21;14.30;85.30
2751;DHT22;1383;48.362;10.908;2022-09-09T03:28:49;14.30;85.10
2751;DHT22;1383;48.362;10.908;2022-09-09T03:31:18;14.40;85.30
2751;DHT22;1383;48.362;10.908;2022-09-09T03:33:45;14.40;84.40
2751;DHT22;1383;48.362;10.908;2022-09-09T03:36:12;14.40;84.00
2751;DHT22;1383;48.362;10.908;2022-09-09T03:38:39;14.40;84.40
2751;DHT22;1383;48.362;10.908;2022-09-09T03:41:06;14.40;84.00
2751;DHT22;1383;48.362;10.908;2022-09-09T03:43:34;14.30;83.50
2751;DHT22;1383;48.362;10.908;2022-09-09T03:46:01;14.40;83.60
2751;DHT22;1383;48.362;10.908;2022-09-09T03:48:28;14.40;82.70
2751;DHT22;1383;48.362;10.908;2022-09-09T03:50:56;14.40;82.60
2751;DHT22;1383;48.362;10.908;2022-09-09T03:53:24;14.40;82.10
2751;DHT22;1383;48.362;10.908;2022-09-09T03:55:53;14.40;82.00
2751;DHT22;1383;48.362;10.908;2022-09-09T03:58:26;14.40;82.60
2751;DHT22;1383;48.362;10.908;2022-09-09T04:00:59;14.30;83.20
2751;DHT22;1383;48.362;10.908;2022-09-09T04:03:26;14.30;83.80
2751;DHT22;1383;48.362;10.908;2022-09-09T04:05:55;14.30;83.80
2751;DHT22;1383;48.362;10.908;2022-09-09T04:08:22;14.30;84.00
2751;DHT22;1383;48.362;10.908;2022-09-09T04:10:52;14.20;84.60
2751;DHT22;1383;48.362;10.908;2022-09-09T04:13:19;14.20;84.90
2751;DHT22;1383;48.362;10.908;2022-09-09T04:15:58;14.20;84.50
2751;DHT22;1383;48.362;10.908;2022-09-09T04:18:26;14.20;84.20
2751;DHT22;1383;48.362;10.908;2022-09-09T04:20:55;14.20;83.50
2751;DHT22;1383;48.362;10.908;2022-09-09T04:23:25;14.20;84.00
2751;DHT22;1383;48.362;10.908;2022-09-09T04:25:53;14.20;83.90
2751;DHT22;1383;48.362;10.908;2022-09-09T04:28:22;14.30;84.00
2751;DHT22;1383;48.362;10.908;2022-09-09T04:30:50;14.30;83.80
2751;DHT22;1383;48.362;10.908;2022-09-09T04:33:17;14.30;84.50
2751;DHT22;1383;48.362;10.908;2022-09-09T04:35:45;14.40;83.70
2751;DHT22;1383;48.362;10.908;2022-09-09T04:38:12;14.50;83.00
2751;DHT22;1383;48.362;10.908;2022-09-09T04:40:39;14.60;83.10
2751;DHT22;1383;48.362;10.908;2022-09-09T04:43:10;14.60;83.20
2751;DHT22;1383;48.362;10.908;2022-09-09T04:45:40;14.70;82.70
2751;DHT22;1383;48.362;10.908;2022-09-09T04:48:08;14.70;82.00
2751;DHT22;1383;48.362;10.908;2022-09-09T04:50:36;14.70;82.10
2751;DHT22;1383;48.362;10.908;2022-09-09T04:53:04;14.80;82.00
2751;DHT22;1383;48.362;10.908;2022-09-09T04:55:32;14.80;81.50
2751;DHT22;1383;48.362;10.908;2022-09-09T04:58:06;14.90;81.30
2751;DHT22;1383;48.362;10.908;2022-09-09T05:00:34;14.90;80.40
2751;DHT22;1383;48.362;10.908;2022-09-09T05:03:03;14.90;80.40
2751;DHT22;1383;48.362;10.908;2022-09-09T05:05:31;14.90;80.70
2751;DHT22;1383;48.362;10.908;2022-09-09T05:08:02;14.90;81.20
2751;DHT22;1383;48.362;10.908;2022-09-09T05:10:29;15.00;80.70
2751;DHT22;1383;48.362;10.908;2022-09-09T05:12:56;15.00;80.30
2751;DHT22;1383;48.362;10.908;2022-09-09T05:15:23;15.10;80.10
2751;DHT22;1383;48.362;10.908;2022-09-09T05:17:50;15.20;79.70
2751;DHT22;1383;48.362;10.908;2022-09-09T05:20:19;15.10;79.60
2751;DHT22;1383;48.362;10.908;2022-09-09T05:22:46;15.20;79.70
2751;DHT22;1383;48.362;10.908;2022-09-09T05:25:13;15.30;79.40
2751;DHT22;1383;48.362;10.908;2022-09-09T05:27:40;15.40;79.20
2751;DHT22;1383;48.362;10.908;2022-09-09T05:30:07;15.40;78.90
2751;DHT22;1383;48.362;10.908;2022-09-09T05:32:34;15.50;78.90
2751;DHT22;1383;48.362;10.908;2022-09-09T05:35:01;15.60;78.10
2751;DHT22;1383;48.362;10.908;2022-09-09T05:37:28;15.70;77.10
2751;DHT22;1383;48.362;10.908;2022-09-09T05:39:56;15.70;75.80
2751;DHT22;1383;48.362;10.908;2022-09-09T05:42:24;15.70;75.50
2751;DHT22;1383;48.362;10.908;2022-09-09T05:44:51;15.80;74.90
2751;DHT22;1383;48.362;10.908;2022-09-09T05:47:20;15.80;74.30
2751;DHT22;1383;48.362;10.908;2022-09-09T05:49:47;15.80;74.40
2751;DHT22;1383;48.362;10.908;2022-09-09T05:52:14;15.80;73.30
2751;DHT22;1383;48.362;10.908;2022-09-09T05:54:41;15.80;72.00
2751;DHT22;1383;48.362;10.908;2022-09-09T05:57:09;15.80;71.90
2751;DHT22;1383;48.362;10.908;2022-09-09T05:59:35;15.80;70.30
2751;DHT22;1383;48.362;10.908;2022-09-09T06:02:02;15.80;70.30
2751;DHT22;1383;48.362;10.908;2022-09-09T06:04:29;15.80;69.80
2751;DHT22;1383;48.362;10.908;2022-09-09T06:06:56;15.90;69.40
2751;DHT22;1383;48.362;10.908;2022-09-09T06:09:23;15.90;68.70
2751;DHT22;1383;48.362;10.908;2022-09-09T06:11:50;16.00;68.40
2751;DHT22;1383;48.362;10.908;2022-09-09T06:14:16;16.10;67.70
2751;DHT22;1383;48.362;10.908;2022-09-09T06:16:44;16.20;66.90
2751;DHT22;1383;48.362;10.908;2022-09-09T06:19:11;16.30;67.10
2751;DHT22;1383;48.362;10.908;2022-09-09T06:21:39;16.40;66.40
2751;DHT22;1383;48.362;10.908;2022-09-09T06:24:07;16.50;65.60
2751;DHT22;1383;48.362;10.908;2022-09-09T06:26:36;16.60;65.30
2751;DHT22;1383;48.362;10.908;2022-09-09T06:29:03;16.70;64.90
2751;DHT22;1383;48.362;10.908;2022-09-09T06:31:33;16.80;64.30
2751;DHT22;1383;48.362;10.908;2022-09-09T06:34:01;16.90;63.60
2751;DHT22;1383;48.362;10.908;2022-09-09T06:36:32;16.90;63.40
2751;DHT22;1383;48.362;10.908;2022-09-09T06:39:00;16.90;63.70
2751;DHT22;1383;48.362;10.908;2022-09-09T06:41:30;16.90;63.50
2751;DHT22;1383;48.362;10.908;2022-09-09T06:43:57;17.00;63.50
2751;DHT22;1383;48.362;10.908;2022-09-09T06:46:26;17.00;63.50
2751;DHT22;1383;48.362;10.908;2022-09-09T06:48:57;17.00;63.30
2751;DHT22;1383;48.362;10.908;2022-09-09T06:51:30;17.00;63.80
2751;DHT22;1383;48.362;10.908;2022-09-09T06:54:01;16.90;63.70
2751;DHT22;1383;48.362;10.908;2022-09-09T06:56:39;16.80;64.00
2751;DHT22;1383;48.362;10.908;2022-09-09T06:59:10;16.70;65.40
2751;DHT22;1383;48.362;10.908;2022-09-09T07:01:40;16.80;66.20
2751;DHT22;1383;48.362;10.908;2022-09-09T07:04:07;17.00;66.00
2751;DHT22;1383;48.362;10.908;2022-09-09T07:06:40;17.10;65.00
2751;DHT22;1383;48.362;10.908;2022-09-09T07:09:11;17.10;66.20
2751;DHT22;1383;48.362;10.908;2022-09-09T07:11:47;17.20;66.10
2751;DHT22;1383;48.362;10.908;2022-09-09T07:14:14;17.30;64.80
2751;DHT22;1383;48.362;10.908;2022-09-09T07:16:42;17.50;64.10
2751;DHT22;1383;48.362;10.908;2022-09-09T07:19:10;17.60;63.10
2751;DHT22;1383;48.362;10.908;2022-09-09T07:21:37;17.70;62.50
2751;DHT22;1383;48.362;10.908;2022-09-09T07:24:06;17.70;61.80
2751;DHT22;1383;48.362;10.908;2022-09-09T07:26:38;17.70;61.70
2751;DHT22;1383;48.362;10.908;2022-09-09T07:29:05;17.70;61.50
2751;DHT22;1383;48.362;10.908;2022-09-09T07:31:34;17.80;62.10
2751;DHT22;1383;48.362;10.908;2022-09-09T07:34:03;17.80;62.60
2751;DHT22;1383;48.362;10.908;2022-09-09T07:36:32;17.90;64.50
2751;DHT22;1383;48.362;10.908;2022-09-09T07:39:05;17.90;64.90
2751;DHT22;1383;48.362;10.908;2022-09-09T07:41:44;17.80;64.60
2751;DHT22;1383;48.362;10.908;2022-09-09T07:44:16;17.80;64.40
2751;DHT22;1383;48.362;10.908;2022-09-09T07:46:44;17.90;65.60
2751;DHT22;1383;48.362;10.908;2022-09-09T07:49:12;17.90;65.20
2751;DHT22;1383;48.362;10.908;2022-09-09T07:51:41;17.80;64.60
2751;DHT22;1383;48.362;10.908;2022-09-09T07:54:10;17.80;64.80
2751;DHT22;1383;48.362;10.908;2022-09-09T07:56:39;17.90;65.60
2751;DHT22;1383;48.362;10.908;2022-09-09T07:59:06;18.00;65.40
2751;DHT22;1383;48.362;10.908;2022-09-09T08:01:35;18.10;64.40
2751;DHT22;1383;48.362;10.908;2022-09-09T08:04:08;18.30;64.00
2751;DHT22;1383;48.362;10.908;2022-09-09T08:06:41;18.40;62.00
2751;DHT22;1383;48.362;10.908;2022-09-09T08:09:09;18.40;60.00
2751;DHT22;1383;48.362;10.908;2022-09-09T08:11:37;18.50;60.60
2751;DHT22;1383;48.362;10.908;2022-09-09T08:14:06;18.70;61.40
2751;DHT22;1383;48.362;10.908;2022-09-09T08:16:40;18.70;60.90
2751;DHT22;1383;48.362;10.908;2022-09-09T08:19:08;18.90;61.50
2751;DHT22;1383;48.362;10.908;2022-09-09T08:21:36;19.00;59.60
2751;DHT22;1383;48.362;10.908;2022-09-09T08:24:04;19.10;60.10
2751;DHT22;1383;48.362;10.908;2022-09-09T08:26:39;19.30;58.30
2751;DHT22;1383;48.362;10.908;2022-09-09T08:29:09;19.50;58.00
2751;DHT22;1383;48.362;10.908;2022-09-09T08:31:38;19.70;57.10
2751;DHT22;1383;48.362;10.908;2022-09-09T08:34:06;20.10;56.00
2751;DHT22;1383;48.362;10.908;2022-09-09T08:36:37;20.20;55.00
2751;DHT22;1383;48.362;10.908;2022-09-09T08:39:06;20.30;53.90
2751;DHT22;1383;48.362;10.908;2022-09-09T08:58:27;20.80;50.90
2751;DHT22;1383;48.362;10.908;2022-09-09T09:09:15;20.90;48.30
2751;DHT22;1383;48.362;10.908;2022-09-09T09:11:49;21.00;47.40
2751;DHT22;1383;48.362;10.908;2022-09-09T09:14:25;21.20;48.30
2751;DHT22;1383;48.362;10.908;2022-09-09T09:17:00;21.30;47.50
2751;DHT22;1383;48.362;10.908;2022-09-09T09:19:30;21.40;47.10
2751;DHT22;1383;48.362;10.908;2022-09-09T09:25:15;21.40;46.80
2751;DHT22;1383;48.362;10.908;2022-09-09T09:27:58;21.60;46.40
2751;DHT22;1383;48.362;10.908;2022-09-09T09:30:36;21.90;45.90
2751;DHT22;1383;48.362;10.908;2022-09-09T09:36:08;22.60;45.20
2751;DHT22;1383;48.362;10.908;2022-09-09T09:38:36;22.60;44.50
2751;DHT22;1383;48.362;10.908;2022-09-09T09:41:36;22.50;44.30
2751;DHT22;1383;48.362;10.908;2022-09-09T09:44:04;22.20;44.80
2751;DHT22;1383;48.362;10.908;2022-09-09T09:46:31;22.00;45.40
2751;DHT22;1383;48.362;10.908;2022-09-09T09:49:09;21.90;45.80
2751;DHT22;1383;48.362;10.908;2022-09-09T09:51:36;22.00;45.70
2751;DHT22;1383;48.362;10.908;2022-09-09T09:54:17;21.90;45.80
2751;DHT22;1383;48.362;10.908;2022-09-09T09:56:47;22.00;45.70
2751;DHT22;1383;48.362;10.908;2022-09-09T10:02:22;22.10;45.60
2751;DHT22;1383;48.362;10.908;2022-09-09T10:05:06;22.00;45.90
2751;DHT22;1383;48.362;10.908;2022-09-09T10:07:38;21.90;45.70
2751;DHT22;1383;48.362;10.908;2022-09-09T10:10:08;22.00;45.80
2751;DHT22;1383;48.362;10.908;2022-09-09T10:26:27;22.10;46.30
2751;DHT22;1383;48.362;10.908;2022-09-09T10:32:23;21.90;46.00
2751;DHT22;1383;48.362;10.908;2022-09-09T10:51:29;21.80;47.90
2751;DHT22;1383;48.362;10.908;2022-09-09T10:56:36;21.70;47.50
2751;DHT22;1383;48.362;10.908;2022-09-09T10:59:16;21.70;48.30
2751;DHT22;1383;48.362;10.908;2022-09-09T11:01:47;21.80;49.30
2751;DHT22;1383;48.362;10.908;2022-09-09T11:07:27;21.80;48.90
2751;DHT22;1383;48.362;10.908;2022-09-09T11:10:04;21.80;47.90
2751;DHT22;1383;48.362;10.908;2022-09-09T11:12:35;21.60;48.40
2751;DHT22;1383;48.362;10.908;2022-09-09T11:15:35;21.50;49.10
2751;DHT22;1383;48.362;10.908;2022-09-09T11:18:04;21.50;49.60
2751;DHT22;1383;48.362;10.908;2022-09-09T11:20:33;21.50;49.30
2751;DHT22;1383;48.362;10.908;2022-09-09T11:23:15;21.40;48.80
2751;DHT22;1383;48.362;10.908;2022-09-09T11:25:53;21.40;49.70
2751;DHT22;1383;48.362;10.908;2022-09-09T11:34:13;22.00;47.60
2751;DHT22;1383;48.362;10.908;2022-09-09T11:42:24;21.80;47.40
2751;DHT22;1383;48.362;10.908;2022-09-09T11:44:51;21.80;48.70
2751;DHT22;1383;48.362;10.908;2022-09-09T11:47:26;21.90;48.70
2751;DHT22;1383;48.362;10.908;2022-09-09T11:52:43;21.70;48.60
2751;DHT22;1383;48.362;10.908;2022-09-09T12:00:46;22.20;47.70
2751;DHT22;1383;48.362;10.908;2022-09-09T12:03:44;22.10;47.90
2751;DHT22;1383;48.362;10.908;2022-09-09T12:06:31;22.30;46.50
2751;DHT22;1383;48.362;10.908;2022-09-09T12:11:46;22.20;45.60
2751;DHT22;1383;48.362;10.908;2022-09-09T12:14:37;21.90;46.70
2751;DHT22;1383;48.362;10.908;2022-09-09T12:17:19;21.70;46.90
2751;DHT22;1383;48.362;10.908;2022-09-09T12:19:48;21.60;47.80
2751;DHT22;1383;48.362;10.908;2022-09-09T12:28:11;21.90;48.40
2751;DHT22;1383;48.362;10.908;2022-09-09T12:33:19;22.00;46.90
2751;DHT22;1383;48.362;10.908;2022-09-09T12:35:57;21.90;47.10
2751;DHT22;1383;48.362;10.908;2022-09-09T12:38:36;21.80;47.30
2751;DHT22;1383;48.362;10.908;2022-09-09T12:41:03;21.70;47.40
2751;DHT22;1383;48.362;10.908;2022-09-09T12:43:30;21.80;47.50
2751;DHT22;1383;48.362;10.908;2022-09-09T12:46:08;21.90;47.90
2751;DHT22;1383;48.362;10.908;2022-09-09T12:48:40;21.90;47.10
2751;DHT22;1383;48.362;10.908;2022-09-09T12:51:21;22.00;46.80
2751;DHT22;1383;48.362;10.908;2022-09-09T12:53:52;21.90;46.50
2751;DHT22;1383;48.362;10.908;2022-09-09T12:56:27;21.90;47.00
2751;DHT22;1383;48.362;10.908;2022-09-09T12:58:57;21.70;47.60
2751;DHT22;1383;48.362;10.908;2022-09-09T13:01:27;21.80;47.90
2751;DHT22;1383;48.362;10.908;2022-09-09T13:03:56;21.80;47.60
2751;DHT22;1383;48.362;10.908;2022-09-09T13:06:25;21.90;48.00
2751;DHT22;1383;48.362;10.908;2022-09-09T13:08:58;21.90;47.60
2751;DHT22;1383;48.362;10.908;2022-09-09T13:11:41;22.00;47.10
2751;DHT22;1383;48.362;10.908;2022-09-09T13:14:40;21.90;46.20
2751;DHT22;1383;48.362;10.908;2022-09-09T13:17:06;21.80;46.40
2751;DHT22;1383;48.362;10.908;2022-09-09T13:19:44;21.70;47.20
2751;DHT22;1383;48.362;10.908;2022-09-09T13:22:33;21.60;47.70
2751;DHT22;1383;48.362;10.908;2022-09-09T13:27:39;21.40;48.10
2751;DHT22;1383;48.362;10.908;2022-09-09T13:30:24;21.40;47.70
2751;DHT22;1383;48.362;10.908;2022-09-09T13:33:02;21.40;46.90
2751;DHT22;1383;48.362;10.908;2022-09-09T13:35:29;21.50;47.40
2751;DHT22;1383;48.362;10.908;2022-09-09T13:37:56;21.60;48.00
2751;DHT22;1383;48.362;10.908;2022-09-09T13:40:24;21.70;48.20
2751;DHT22;1383;48.362;10.908;2022-09-09T13:42:56;21.80;46.70
2751;DHT22;1383;48.362;10.908;2022-09-09T13:45:25;21.90;45.60
2751;DHT22;1383;48.362;10.908;2022-09-09T13:47:55;21.90;45.30
2751;DHT22;1383;48.362;10.908;2022-09-09T13:52:54;21.80;45.20
2751;DHT22;1383;48.362;10.908;2022-09-09T13:55:22;21.60;45.60
2751;DHT22;1383;48.362;10.908;2022-09-09T13:58:02;21.50;45.90
2751;DHT22;1383;48.362;10.908;2022-09-09T14:00:31;21.40;44.30
2751;DHT22;1383;48.362;10.908;2022-09-09T14:02:58;21.30;43.90
2751;DHT22;1383;48.362;10.908;2022-09-09T14:05:29;21.20;44.50
2751;DHT22;1383;48.362;10.908;2022-09-09T14:07:57;21.30;45.20
2751;DHT22;1383;48.362;10.908;2022-09-09T14:10:24;21.20;45.10
2751;DHT22;1383;48.362;10.908;2022-09-09T14:12:50;21.30;45.10
2751;DHT22;1383;48.362;10.908;2022-09-09T14:15:17;21.10;49.00
2751;DHT22;1383;48.362;10.908;2022-09-09T14:17:44;20.70;51.10
2751;DHT22;1383;48.362;10.908;2022-09-09T14:20:11;19.90;52.80
2751;DHT22;1383;48.362;10.908;2022-09-09T14:22:38;19.20;57.40
2751;DHT22;1383;48.362;10.908;2022-09-09T14:25:08;18.60;58.10
2751;DHT22;1383;48.362;10.908;2022-09-09T14:27:35;17.90;61.00
2751;DHT22;1383;48.362;10.908;2022-09-09T14:30:02;17.60;61.90
2751;DHT22;1383;48.362;10.908;2022-09-09T14:32:29;17.30;64.40
2751;DHT22;1383;48.362;10.908;2022-09-09T14:34:56;17.10;71.20
2751;DHT22;1383;48.362;10.908;2022-09-09T14:37:23;17.00;75.60
2751;DHT22;1383;48.362;10.908;2022-09-09T14:39:50;16.90;75.90
2751;DHT22;1383;48.362;10.908;2022-09-09T14:42:17;16.80;72.80
2751;DHT22;1383;48.362;10.908;2022-09-09T14:44:45;16.80;71.10
2751;DHT22;1383;48.362;10.908;2022-09-09T14:47:11;16.90;76.00
2751;DHT22;1383;48.362;10.908;2022-09-09T14:49:38;16.80;76.10
2751;DHT22;1383;48.362;10.908;2022-09-09T14:52:09;16.80;78.20
2751;DHT22;1383;48.362;10.908;2022-09-09T14:54:36;16.90;85.00
2751;DHT22;1383;48.362;10.908;2022-09-09T14:57:03;17.00;86.10
2751;DHT22;1383;48.362;10.908;2022-09-09T14:59:29;17.20;86.40
2751;DHT22;1383;48.362;10.908;2022-09-09T15:01:56;17.30;83.20
2751;DHT22;1383;48.362;10.908;2022-09-09T15:04:23;17.40;83.60
2751;DHT22;1383;48.362;10.908;2022-09-09T15:06:50;17.50;83.20
2751;DHT22;1383;48.362;10.908;2022-09-09T15:09:19;17.60;81.30
2751;DHT22;1383;48.362;10.908;2022-09-09T15:11:46;17.80;79.70
2751;DHT22;1383;48.362;10.908;2022-09-09T15:14:13;17.80;79.70
2751;DHT22;1383;48.362;10.908;2022-09-09T15:16:40;17.90;81.30
2751;DHT22;1383;48.362;10.908;2022-09-09T15:19:07;17.90;80.70
2751;DHT22;1383;48.362;10.908;2022-09-09T15:21:37;18.00;82.20
2751;DHT22;1383;48.362;10.908;2022-09-09T15:24:05;18.10;82.10
2751;DHT22;1383;48.362;10.908;2022-09-09T15:26:34;18.10;84.20
2751;DHT22;1383;48.362;10.908;2022-09-09T15:29:02;18.20;83.90
2751;DHT22;1383;48.362;10.908;2022-09-09T15:31:31;18.30;84.20
2751;DHT22;1383;48.362;10.908;2022-09-09T15:34:06;18.40;84.30
2751;DHT22;1383;48.362;10.908;2022-09-09T15:36:39;18.50;86.30
2751;DHT22;1383;48.362;10.908;2022-09-09T15:39:08;18.50;86.70
2751;DHT22;1383;48.362;10.908;2022-09-09T15:41:39;18.60;86.30
2751;DHT22;1383;48.362;10.908;2022-09-09T15:44:06;18.60;86.40
2751;DHT22;1383;48.362;10.908;2022-09-09T15:46:41;18.60;85.50
2751;DHT22;1383;48.362;10.908;2022-09-09T15:49:13;18.60;83.40
2751;DHT22;1383;48.362;10.908;2022-09-09T15:51:42;18.70;83.30
2751;DHT22;1383;48.362;10.908;2022-09-09T15:54:15;18.70;82.40
2751;DHT22;1383;48.362;10.908;2022-09-09T15:56:51;18.80;82.40
2751;DHT22;1383;48.362;10.908;2022-09-09T15:59:18;18.70;82.20
2751;DHT22;1383;48.362;10.908;2022-09-09T16:01:45;18.70;82.40
2751;DHT22;1383;48.362;10.908;2022-09-09T16:04:12;18.80;81.70
2751;DHT22;1383;48.362;10.908;2022-09-09T16:06:39;18.90;81.30
2751;DHT22;1383;48.362;10.908;2022-09-09T16:09:06;19.00;79.90
2751;DHT22;1383;48.362;10.908;2022-09-09T16:11:36;19.10;79.00
2751;DHT22;1383;48.362;10.908;2022-09-09T16:14:03;19.10;75.90
2751;DHT22;1383;48.362;10.908;2022-09-09T16:16:32;19.20;73.10
2751;DHT22;1383;48.362;10.908;2022-09-09T16:19:02;19.20;71.40
2751;DHT22;1383;48.362;10.908;2022-09-09T16:21:31;19.20;70.20
2751;DHT22;1383;48.362;10.908;2022-09-09T16:24:00;19.20;71.10
2751;DHT22;1383;48.362;10.908;2022-09-09T16:26:28;19.10;68.30
2751;DHT22;1383;48.362;10.908;2022-09-09T16:28:57;19.00;67.50
2751;DHT22;1383;48.362;10.908;2022-09-09T16:31:26;19.00;63.90
2751;DHT22;1383;48.362;10.908;2022-09-09T16:33:53;19.00;63.60
2751;DHT22;1383;48.362;10.908;2022-09-09T16:36:23;19.10;64.40
2751;DHT22;1383;48.362;10.908;2022-09-09T16:38:54;19.00;64.10
2751;DHT22;1383;48.362;10.908;2022-09-09T16:41:21;19.00;63.50
2751;DHT22;1383;48.362;10.908;2022-09-09T16:43:56;19.00;63.80
2751;DHT22;1383;48.362;10.908;2022-09-09T16:46:23;19.00;64.30
2751;DHT22;1383;48.362;10.908;2022-09-09T16:48:51;19.00;66.20
2751;DHT22;1383;48.362;10.908;2022-09-09T16:51:36;19.00;67.20
2751;DHT22;1383;48.362;10.908;2022-09-09T16:54:05;19.00;65.50
2751;DHT22;1383;48.362;10.908;2022-09-09T16:56:39;18.90;64.40
2751;DHT22;1383;48.362;10.908;2022-09-09T16:59:14;18.90;64.30
2751;DHT22;1383;48.362;10.908;2022-09-09T17:01:43;19.00;64.60
2751;DHT22;1383;48.362;10.908;2022-09-09T17:04:13;19.00;64.70
2751;DHT22;1383;48.362;10.908;2022-09-09T17:06:42;19.00;64.70
2751;DHT22;1383;48.362;10.908;2022-09-09T17:09:11;19.00;64.70
2751;DHT22;1383;48.362;10.908;2022-09-09T17:11:39;18.90;65.30
2751;DHT22;1383;48.362;10.908;2022-09-09T17:14:08;18.90;65.80
2751;DHT22;1383;48.362;10.908;2022-09-09T17:16:36;18.70;65.80
2751;DHT22;1383;48.362;10.908;2022-09-09T17:19:03;18.70;66.90
2751;DHT22;1383;48.362;10.908;2022-09-09T17:21:31;18.70;67.80
2751;DHT22;1383;48.362;10.908;2022-09-09T17:23:59;18.70;68.80
2751;DHT22;1383;48.362;10.908;2022-09-09T17:26:29;18.80;70.50
2751;DHT22;1383;48.362;10.908;2022-09-09T17:28:56;18.70;71.90
2751;DHT22;1383;48.362;10.908;2022-09-09T17:31:26;18.70;71.60
2751;DHT22;1383;48.362;10.908;2022-09-09T17:33:55;18.60;70.70
2751;DHT22;1383;48.362;10.908;2022-09-09T17:36:31;18.60;70.90
2751;DHT22;1383;48.362;10.908;2022-09-09T17:38:59;18.50;70.30
2751;DHT22;1383;48.362;10.908;2022-09-09T17:41:29;18.50;69.10
2751;DHT22;1383;48.362;10.908;2022-09-09T17:43:56;18.40;69.00
2751;DHT22;1383;48.362;10.908;2022-09-09T17:46:29;18.40;70.90
2751;DHT22;1383;48.362;10.908;2022-09-09T17:48:59;18.40;71.50
2751;DHT22;1383;48.362;10.908;2022-09-09T17:51:27;18.40;69.30
2751;DHT22;1383;48.362;10.908;2022-09-09T17:53:58;18.40;68.90
2751;DHT22;1383;48.362;10.908;2022-09-09T17:56:27;18.40;69.40
2751;DHT22;1383;48.362;10.908;2022-09-09T17:58:58;18.40;70.20
2751;DHT22;1383;48.362;10.908;2022-09-09T18:01:27;18.40;72.90
2751;DHT22;1383;48.362;10.908;2022-09-09T18:03:55;18.40;74.70
2751;DHT22;1383;48.362;10.908;2022-09-09T18:06:25;18.40;75.30
2751;DHT22;1383;48.362;10.908;2022-09-09T18:08:58;18.20;66.50
2751;DHT22;1383;48.362;10.908;2022-09-09T18:11:28;18.00;52.40
2751;DHT22;1383;48.362;10.908;2022-09-09T18:13:57;17.60;52.50
2751;DHT22;1383;48.362;10.908;2022-09-09T18:16:24;17.00;56.20
2751;DHT22;1383;48.362;10.908;2022-09-09T18:18:54;16.60;58.30
2751;DHT22;1383;48.362;10.908;2022-09-09T18:21:21;16.10;64.20
2751;DHT22;1383;48.362;10.908;2022-09-09T18:23:48;15.90;69.40
2751;DHT22;1383;48.362;10.908;2022-09-09T18:26:22;15.50;75.90
2751;DHT22;1383;48.362;10.908;2022-09-09T18:28:51;15.10;74.50
2751;DHT22;1383;48.362;10.908;2022-09-09T18:31:20;14.90;78.20
2751;DHT22;1383;48.362;10.908;2022-09-09T18:33:50;14.90;80.50
2751;DHT22;1383;48.362;10.908;2022-09-09T18:36:21;14.90;84.80
2751;DHT22;1383;48.362;10.908;2022-09-09T18:38:48;14.80;86.40
2751;DHT22;1383;48.362;10.908;2022-09-09T18:41:17;14.80;88.20
2751;DHT22;1383;48.362;10.908;2022-09-09T18:43:44;14.80;90.10